Time;durP1;ratioP1;P1;durP2;ratioP2;P2;SDS_P1;SDS_P2;PMS_P1;PMS_P2;Temp;Humidity;BMP_temperature;BMP_pressure;BME280_temperature;BME280_humidity;BME280_pressure;Samples;Min_cycle;Max_cycle;Signal;HPM_P1;HPM_P2
2022/12/23 00:01:01;;;;;;;10.55;3.95;;;9.50;99.90;;;;;;4974554;28;20066;-70
2022/12/23 00:03:27;;;;;;;10.73;4.60;;;9.50;99.90;;;;;;4975879;28;20500;-70
2022/12/23 00:05:53;;;;;;;17.35;4.95;;;9.70;99.90;;;;;;4976066;28;20033;-70
2022/12/23 00:08:20;;;;;;;21.63;5.70;;;9.80;99.90;;;;;;4975202;28;20026;-69
2022/12/23 00:10:48;;;;;;;16.15;5.57;;;9.80;99.90;;;;;;4974792;28;20053;-69
2022/12/23 00:16:03;;;;;;;12.48;4.40;;;9.60;99.90;;;;;;4976242;28;20058;-69
2022/12/23 00:18:28;;;;;;;9.88;4.00;;;9.70;99.90;;;;;;4975484;28;20026;-70
2022/12/23 00:20:59;;;;;;;10.13;4.20;;;9.70;99.90;;;;;;4975681;28;20048;-69
2022/12/23 00:23:24;;;;;;;12.32;4.93;;;9.70;99.90;;;;;;4975677;28;20022;-69
2022/12/23 00:25:50;;;;;;;14.60;4.57;;;9.80;99.90;;;;;;4976184;28;20085;-69
2022/12/23 00:28:18;;;;;;;9.43;4.60;;;9.80;99.90;;;;;;4974158;28;20101;-69
2022/12/23 00:33:13;;;;;;;8.90;3.08;;;9.80;99.90;;;;;;4971387;28;20050;-69
2022/12/23 00:35:40;;;;;;;12.45;2.83;;;9.90;99.90;;;;;;4974000;28;20023;-69
2022/12/23 00:44:12;;;;;;;5.88;3.20;;;10.10;99.90;;;;;;4975296;28;20086;-69
2022/12/23 00:46:38;;;;;;;5.90;2.78;;;10.10;99.90;;;;;;4974984;28;20023;-69
2022/12/23 00:51:48;;;;;;;7.68;2.90;;;10.10;99.90;;;;;;4974845;28;20082;-68
2022/12/23 00:54:14;;;;;;;9.23;3.20;;;10.10;99.90;;;;;;4974986;28;20434;-68
2022/12/23 00:57:33;;;;;;;5.82;2.30;;;10.10;99.90;;;;;;4973149;28;20106;-68
2022/12/23 00:59:59;;;;;;;6.78;3.10;;;10.20;99.90;;;;;;4974929;28;20078;-68
2022/12/23 01:07:54;;;;;;;4.57;2.30;;;10.20;99.90;;;;;;4956113;29;20118;-69
2022/12/23 01:10:20;;;;;;;6.22;2.65;;;10.20;99.90;;;;;;4953939;28;20055;-69
2022/12/23 01:12:45;;;;;;;4.93;2.45;;;10.20;99.90;;;;;;4954714;28;20106;-69
2022/12/23 01:15:11;;;;;;;5.55;2.75;;;10.20;99.90;;;;;;4953700;28;20033;-69
2022/12/23 01:17:45;;;;;;;11.50;3.13;;;10.20;99.90;;;;;;4951415;28;20086;-69
2022/12/23 01:20:11;;;;;;;5.28;2.75;;;10.20;99.90;;;;;;4954382;28;20054;-70
2022/12/23 01:22:36;;;;;;;6.68;2.80;;;10.20;99.90;;;;;;4953789;28;20035;-70
2022/12/23 01:25:02;;;;;;;7.72;2.30;;;10.20;99.90;;;;;;4954254;28;20364;-69
2022/12/23 01:27:28;;;;;;;5.30;2.47;;;10.20;99.90;;;;;;4953054;28;20517;-69
2022/12/23 01:29:53;;;;;;;5.85;2.60;;;10.30;99.90;;;;;;4954993;28;20037;-69
2022/12/23 01:32:19;;;;;;;6.85;2.28;;;10.30;99.90;;;;;;4955170;28;20039;-70
2022/12/23 01:34:44;;;;;;;4.00;2.30;;;10.30;99.90;;;;;;4953623;28;20019;-69
2022/12/23 01:37:10;;;;;;;4.22;2.00;;;10.30;99.90;;;;;;4955093;28;20024;-69
2022/12/23 01:39:35;;;;;;;4.22;2.00;;;10.30;99.90;;;;;;4954495;28;20032;-69
2022/12/23 01:44:59;;;;;;;5.35;2.13;;;10.40;99.90;;;;;;4955378;29;20035;-69
2022/12/23 01:47:40;;;;;;;6.60;2.50;;;10.30;99.90;;;;;;4934685;29;20028;-69
2022/12/23 01:50:15;;;;;;;6.38;2.30;;;10.30;99.90;;;;;;4940268;28;20031;-69
2022/12/23 01:52:53;;;;;;;4.18;1.92;;;10.30;99.90;;;;;;4954938;28;20082;-69
2022/12/23 01:55:24;;;;;;;6.72;2.67;;;10.30;99.90;;;;;;4953766;28;20024;-69
2022/12/23 01:57:51;;;;;;;5.45;1.90;;;10.30;99.90;;;;;;4954404;29;20026;-69
2022/12/23 02:05:47;;;;;;;4.05;1.58;;;10.40;99.90;;;;;;4955384;29;20058;-69
2022/12/23 02:11:39;;;;;;;7.05;2.20;;;10.40;99.90;;;;;;4958470;28;20034;-69
2022/12/23 02:17:35;;;;;;;3.88;1.75;;;10.40;99.90;;;;;;4958783;29;20039;-69
2022/12/23 02:20:31;;;;;;;5.70;1.58;;;10.40;99.90;;;;;;4957292;28;20054;-69
2022/12/23 02:23:22;;;;;;;3.28;1.48;;;10.50;99.90;;;;;;4957269;28;20034;-69
2022/12/23 02:25:53;;;;;;;4.80;1.50;;;10.50;99.90;;;;;;4957294;28;20038;-69
2022/12/23 02:28:35;;;;;;;4.18;1.50;;;10.50;99.90;;;;;;4958522;28;20031;-69
2022/12/23 02:31:12;;;;;;;6.60;1.40;;;10.40;99.90;;;;;;4957399;28;20035;-69
2022/12/23 02:34:17;;;;;;;6.97;2.20;;;10.40;99.90;;;;;;4957959;28;20075;-69
2022/12/23 02:37:03;;;;;;;2.75;1.25;;;10.30;99.90;;;;;;4955070;29;20166;-68
2022/12/23 02:39:45;;;;;;;4.35;1.67;;;10.40;99.90;;;;;;4958413;28;20075;-68
2022/12/23 02:42:16;;;;;;;;;;;10.30;99.90;;;;;;4957933;28;20113;-68
2022/12/23 02:44:51;;;;;;;3.47;1.58;;;10.30;99.90;;;;;;4956798;28;19914;-69
2022/12/23 02:47:23;;;;;;;3.65;1.48;;;10.30;99.90;;;;;;4957924;28;20023;-68
2022/12/23 02:50:00;;;;;;;4.43;1.75;;;10.30;99.90;;;;;;4957179;28;20027;-68
2022/12/23 02:52:30;;;;;;;2.92;1.25;;;10.20;99.90;;;;;;4956947;28;20023;-68
2022/12/23 02:55:02;;;;;;;5.20;2.13;;;10.20;99.90;;;;;;4957042;28;20030;-68
2022/12/23 02:57:33;;;;;;;3.95;1.48;;;10.20;99.90;;;;;;4956883;28;20482;-68
2022/12/23 03:00:00;;;;;;;7.38;2.00;;;10.10;99.90;;;;;;4956544;28;20035;-68
2022/12/23 03:02:25;;;;;;;6.95;2.25;;;10.20;99.90;;;;;;4956913;28;20038;-69
2022/12/23 03:04:51;;;;;;;3.50;1.27;;;10.10;99.90;;;;;;4956461;28;20027;-69
2022/12/23 03:07:34;;;;;;;7.00;1.63;;;10.10;99.90;;;;;;4956424;28;20042;-69
2022/12/23 03:10:12;;;;;;;2.58;1.90;;;10.20;99.90;;;;;;4957598;28;20042;-69
2022/12/23 03:12:44;;;;;;;4.90;1.80;;;10.20;99.90;;;;;;4957791;28;20034;-69
2022/12/23 03:15:37;;;;;;;7.85;1.35;;;10.20;99.90;;;;;;4956302;28;20023;-69
2022/12/23 03:18:16;;;;;;;5.63;1.73;;;10.10;99.90;;;;;;4957295;28;20086;-69
2022/12/23 03:21:17;;;;;;;3.80;1.42;;;10.10;99.90;;;;;;4957199;28;20050;-69
2022/12/23 03:23:52;;;;;;;3.58;1.35;;;10.10;99.90;;;;;;4953864;29;20035;-69
2022/12/23 03:26:36;;;;;;;4.38;1.63;;;10.20;99.90;;;;;;4957571;28;20031;-69
2022/12/23 03:29:25;;;;;;;3.47;1.45;;;10.10;99.90;;;;;;4956000;28;20031;-69
2022/12/23 03:31:53;;;;;;;1.92;1.40;;;10.10;99.90;;;;;;4955727;28;20035;-69
2022/12/23 03:34:23;;;;;;;4.75;1.50;;;10.00;99.90;;;;;;4956782;28;20034;-69
2022/12/23 03:36:52;;;;;;;2.47;1.65;;;10.00;99.90;;;;;;4956836;28;20090;-69
2022/12/23 03:39:25;;;;;;;2.58;1.58;;;10.00;99.90;;;;;;4957066;28;20035;-69
2022/12/23 03:42:00;;;;;;;8.73;2.88;;;10.00;99.90;;;;;;4955774;28;20028;-69
2022/12/23 03:44:35;;;;;;;5.22;2.10;;;10.00;99.90;;;;;;4955670;28;20028;-69
2022/12/23 03:47:03;;;;;;;2.67;1.75;;;10.00;99.90;;;;;;4956197;28;20387;-69
2022/12/23 03:49:37;;;;;;;6.78;2.25;;;9.90;99.90;;;;;;4955863;28;20023;-69
2022/12/23 03:52:08;;;;;;;6.25;2.35;;;9.90;99.90;;;;;;4957050;28;20106;-69
2022/12/23 03:54:45;;;;;;;8.98;3.40;;;9.90;99.90;;;;;;4955569;28;20078;-69
2022/12/23 03:57:12;;;;;;;4.20;2.50;;;9.80;99.90;;;;;;4955424;28;20490;-69
2022/12/23 03:59:44;;;;;;;4.80;2.30;;;9.80;99.90;;;;;;4955398;28;20023;-69
2022/12/23 04:02:22;;;;;;;5.97;2.88;;;9.80;99.90;;;;;;4955367;28;20027;-69
2022/12/23 04:05:16;;;;;;;7.72;3.10;;;9.80;99.90;;;;;;4956916;28;20038;-69
2022/12/23 04:07:53;;;;;;;4.90;2.60;;;9.80;99.90;;;;;;4930771;29;20039;-69
2022/12/23 04:10:20;;;;;;;6.50;2.72;;;9.70;99.90;;;;;;4956897;29;20034;-69
2022/12/23 04:12:46;;;;;;;10.95;3.05;;;9.70;99.90;;;;;;4955498;28;20117;-69
2022/12/23 04:15:12;;;;;;;5.75;2.88;;;9.60;99.90;;;;;;4955033;28;20110;-69
2022/12/23 04:17:37;;;;;;;6.82;2.88;;;9.60;99.90;;;;;;4956323;28;20054;-69
2022/12/23 04:20:04;;;;;;;10.38;3.33;;;9.60;99.90;;;;;;4955021;28;20028;-69
2022/12/23 04:22:30;;;;;;;6.03;3.20;;;9.60;99.90;;;;;;4956348;28;20019;-69
2022/12/23 04:24:55;;;;;;;6.40;3.10;;;9.60;99.90;;;;;;4955324;29;20114;-69
2022/12/23 04:27:21;;;;;;;3.85;2.80;;;9.60;99.90;;;;;;4955302;28;20063;-69
2022/12/23 04:29:46;;;;;;;3.95;2.10;;;9.60;99.90;;;;;;4954871;28;20105;-69
2022/12/23 04:32:12;;;;;;;4.55;2.50;;;9.50;99.90;;;;;;4955415;28;20153;-69
2022/12/23 04:34:37;;;;;;;4.78;2.05;;;9.60;99.90;;;;;;4955075;28;20086;-69
2022/12/23 04:37:03;;;;;;;3.22;2.03;;;9.50;99.90;;;;;;4954690;28;20023;-69
2022/12/23 04:39:28;;;;;;;3.83;1.42;;;9.60;99.90;;;;;;4955440;28;20030;-69
2022/12/23 04:41:54;;;;;;;2.15;1.30;;;9.60;99.90;;;;;;4954933;28;20050;-69
2022/12/23 04:44:19;;;;;;;2.20;1.45;;;9.70;99.90;;;;;;4954556;28;20023;-69
2022/12/23 04:46:45;;;;;;;2.42;1.48;;;9.70;99.90;;;;;;4955995;28;20479;-69
2022/12/23 04:49:11;;;;;;;3.78;1.40;;;9.70;99.90;;;;;;4954602;28;20490;-69
2022/12/23 04:51:36;;;;;;;2.72;1.48;;;9.70;99.90;;;;;;4954280;28;20038;-69
2022/12/23 04:54:02;;;;;;;1.90;1.35;;;9.70;99.90;;;;;;4954377;28;20023;-69
2022/12/23 04:56:28;;;;;;;1.40;1.30;;;9.70;99.90;;;;;;4954477;28;20031;-69
2022/12/23 04:58:53;;;;;;;3.22;1.20;;;9.70;99.90;;;;;;4954335;28;20027;-69
2022/12/23 05:01:19;;;;;;;2.20;1.10;;;9.70;99.90;;;;;;4955752;28;20386;-69
2022/12/23 05:03:44;;;;;;;3.25;1.20;;;9.70;99.90;;;;;;4955569;28;20039;-69
2022/12/23 05:06:10;;;;;;;2.78;1.25;;;9.80;99.90;;;;;;4955086;28;20023;-69
2022/12/23 05:08:35;;;;;;;2.38;1.00;;;9.80;99.90;;;;;;4954270;28;20023;-69
2022/12/23 05:11:02;;;;;;;6.13;2.03;;;9.80;99.90;;;;;;4954063;28;20034;-69
2022/12/23 05:13:27;;;;;;;0.40;0.40;;;9.80;99.90;;;;;;4954433;28;20027;-69
2022/12/23 05:15:53;;;;;;;3.70;0.95;;;9.90;99.90;;;;;;4954811;28;20026;-69
2022/12/23 05:18:20;;;;;;;1.05;0.60;;;10.00;99.90;;;;;;4955279;28;20023;-69
2022/12/23 05:20:45;;;;;;;0.88;0.52;;;10.00;99.90;;;;;;4953973;28;20107;-69
2022/12/23 05:23:11;;;;;;;1.25;0.60;;;10.10;99.90;;;;;;4953938;28;20031;-68
2022/12/23 05:25:38;;;;;;;0.63;0.60;;;10.20;99.90;;;;;;4955632;28;20038;-68
2022/12/23 05:28:04;;;;;;;0.80;0.50;;;10.20;99.90;;;;;;4955196;28;20031;-68
2022/12/23 05:30:30;;;;;;;3.00;0.70;;;10.10;99.90;;;;;;4955155;28;20070;-68
2022/12/23 05:32:56;;;;;;;0.50;0.45;;;10.10;99.90;;;;;;4954163;28;20122;-69
2022/12/23 05:35:23;;;;;;;1.52;0.60;;;10.20;99.90;;;;;;4955128;28;20087;-69
2022/12/23 05:37:49;;;;;;;1.48;0.65;;;10.20;99.90;;;;;;4955098;28;20027;-69
2022/12/23 05:40:15;;;;;;;1.15;0.75;;;10.20;99.90;;;;;;4954402;28;20081;-69
2022/12/23 05:42:40;;;;;;;1.02;0.55;;;10.20;99.90;;;;;;4954970;28;20074;-69
2022/12/23 05:45:06;;;;;;;1.45;0.75;;;10.20;99.90;;;;;;4953828;28;20038;-69
2022/12/23 05:47:32;;;;;;;2.17;0.93;;;10.20;99.90;;;;;;4953782;28;20074;-69
2022/12/23 05:49:57;;;;;;;1.73;1.17;;;10.20;99.90;;;;;;4953647;28;20019;-69
2022/12/23 05:52:23;;;;;;;1.90;1.40;;;10.10;99.90;;;;;;4955754;28;20028;-69
2022/12/23 05:54:49;;;;;;;2.65;1.60;;;10.10;99.90;;;;;;4954949;28;20024;-69
2022/12/23 05:57:14;;;;;;;2.90;1.73;;;10.20;99.90;;;;;;4954043;28;20335;-69
2022/12/23 05:59:40;;;;;;;4.75;1.38;;;10.10;99.90;;;;;;4954525;28;20030;-69
2022/12/23 06:02:05;;;;;;;3.58;1.48;;;10.10;99.90;;;;;;4953574;28;20035;-69
2022/12/23 06:05:16;;;;;;;1.90;1.10;;;10.10;99.90;;;;;;4953802;28;20027;-69
2022/12/23 06:07:42;;;;;;;1.50;1.30;;;10.00;99.90;;;;;;4953836;28;20028;-69
2022/12/23 06:10:09;;;;;;;1.30;0.82;;;10.00;99.90;;;;;;4954996;28;20034;-69
2022/12/23 06:12:35;;;;;;;1.95;1.02;;;10.10;99.90;;;;;;4953974;28;20024;-69
2022/12/23 06:15:01;;;;;;;1.05;0.95;;;10.10;99.90;;;;;;4953981;28;20023;-69
2022/12/23 06:17:27;;;;;;;0.82;0.80;;;10.30;99.90;;;;;;4953669;28;20024;-69
2022/12/23 06:19:52;;;;;;;3.50;1.00;;;10.30;99.90;;;;;;4954110;28;20050;-69
2022/12/23 06:22:20;;;;;;;0.98;0.80;;;10.30;99.90;;;;;;4969869;28;20027;-69
2022/12/23 06:24:46;;;;;;;2.83;1.02;;;10.40;99.90;;;;;;4969554;28;20023;-69
2022/12/23 06:27:12;;;;;;;1.08;1.02;;;10.40;99.90;;;;;;4969676;28;20094;-68
2022/12/23 06:29:37;;;;;;;2.40;1.10;;;10.50;99.90;;;;;;4970436;28;20472;-68
2022/12/23 06:32:03;;;;;;;3.78;1.13;;;10.40;99.90;;;;;;4953766;28;20042;-68
2022/12/23 06:34:30;;;;;;;0.88;0.60;;;10.50;99.90;;;;;;4955200;28;20028;-68
2022/12/23 06:36:55;;;;;;;2.70;0.70;;;10.60;99.90;;;;;;4969387;28;20024;-68
2022/12/23 06:39:21;;;;;;;2.50;0.70;;;10.60;99.90;;;;;;4953383;28;20118;-68
2022/12/23 06:41:46;;;;;;;1.10;0.70;;;10.60;99.90;;;;;;4969630;28;20029;-68
2022/12/23 06:44:12;;;;;;;1.08;0.75;;;10.50;99.90;;;;;;4969332;28;20019;-68
2022/12/23 06:46:37;;;;;;;3.90;0.85;;;10.60;99.90;;;;;;4954479;28;20063;-68
2022/12/23 06:49:03;;;;;;;3.13;0.70;;;10.50;99.90;;;;;;4954679;28;20467;-68
2022/12/23 06:51:29;;;;;;;2.33;1.02;;;10.50;99.90;;;;;;4954315;28;20031;-68
2022/12/23 06:53:54;;;;;;;3.97;0.70;;;10.50;99.90;;;;;;4969919;28;20106;-68
2022/12/23 06:56:20;;;;;;;1.50;0.60;;;10.50;99.90;;;;;;4973001;28;20027;-68
2022/12/23 06:58:45;;;;;;;0.88;0.70;;;10.50;99.90;;;;;;4972693;28;20123;-68
2022/12/23 07:01:11;;;;;;;2.05;0.70;;;10.50;99.90;;;;;;4972491;28;20085;-68
2022/12/23 07:03:36;;;;;;;1.70;0.80;;;10.50;99.90;;;;;;4972606;28;20050;-68
2022/12/23 07:06:02;;;;;;;1.27;0.68;;;10.50;99.90;;;;;;4957802;28;20062;-69
2022/12/23 07:08:28;;;;;;;1.52;0.70;;;10.50;99.90;;;;;;4956281;28;20031;-68
2022/12/23 07:11:02;;;;;;;1.13;0.80;;;10.40;99.90;;;;;;4972516;28;20074;-68
2022/12/23 07:13:27;;;;;;;1.15;0.60;;;10.40;99.90;;;;;;4972383;28;20153;-68
2022/12/23 07:15:53;;;;;;;1.55;0.70;;;10.40;99.90;;;;;;4957049;28;20019;-68
2022/12/23 07:18:20;;;;;;;0.63;0.60;;;10.40;99.90;;;;;;4956959;28;20031;-68
2022/12/23 07:20:46;;;;;;;1.05;0.90;;;10.30;99.90;;;;;;4956091;28;20058;-68
2022/12/23 07:23:11;;;;;;;1.45;0.70;;;10.20;99.90;;;;;;4957541;28;20087;-68
2022/12/23 07:25:37;;;;;;;1.13;0.73;;;10.20;99.90;;;;;;4972170;28;20114;-68
2022/12/23 07:28:03;;;;;;;1.33;0.80;;;10.10;99.90;;;;;;4957493;28;20042;-68
2022/12/23 07:30:28;;;;;;;1.73;0.82;;;10.10;99.90;;;;;;4972077;28;20099;-68
2022/12/23 07:32:54;;;;;;;1.70;1.00;;;10.00;99.90;;;;;;4972686;28;20028;-68
2022/12/23 07:35:19;;;;;;;2.28;1.20;;;10.00;99.90;;;;;;4955941;28;20020;-68
2022/12/23 07:37:49;;;;;;;1.08;0.93;;;9.90;99.90;;;;;;4971872;28;20055;-68
2022/12/23 07:40:15;;;;;;;2.50;1.15;;;9.90;99.90;;;;;;4956883;28;20034;-68
2022/12/23 07:42:40;;;;;;;2.63;1.10;;;9.80;99.90;;;;;;4955890;28;20031;-68
2022/12/23 07:45:06;;;;;;;1.23;0.90;;;9.80;99.90;;;;;;4955666;28;20065;-68
2022/12/23 07:47:32;;;;;;;1.35;0.80;;;9.80;99.90;;;;;;4971660;28;20031;-68
2022/12/23 07:49:57;;;;;;;1.50;0.85;;;9.80;99.90;;;;;;4972417;28;20082;-68
2022/12/23 07:52:23;;;;;;;3.53;1.05;;;9.90;99.90;;;;;;4971851;28;20031;-69
2022/12/23 07:54:48;;;;;;;1.42;0.80;;;9.90;99.90;;;;;;4971646;28;20027;-69
2022/12/23 07:57:14;;;;;;;2.78;0.70;;;10.10;99.90;;;;;;4956009;28;20027;-69
2022/12/23 07:59:39;;;;;;;3.35;0.93;;;10.00;99.90;;;;;;4971841;28;20110;-69
2022/12/23 08:02:05;;;;;;;2.63;1.17;;;10.10;99.90;;;;;;4971849;28;20180;-69
2022/12/23 08:04:30;;;;;;;1.30;0.90;;;10.20;99.90;;;;;;4971362;28;20027;-68
2022/12/23 08:06:56;;;;;;;1.38;0.77;;;10.20;99.90;;;;;;4971680;28;20023;-68
2022/12/23 08:09:21;;;;;;;1.90;0.80;;;10.30;99.90;;;;;;4955567;28;20023;-68
2022/12/23 08:11:47;;;;;;;1.35;0.52;;;10.40;99.90;;;;;;4956402;28;20054;-68
2022/12/23 08:14:12;;;;;;;1.38;0.98;;;10.40;99.90;;;;;;4956322;28;20042;-68
2022/12/23 08:16:38;;;;;;;12.05;4.55;;;10.30;99.90;;;;;;4971462;28;20027;-68
2022/12/23 08:19:03;;;;;;;6.20;2.40;;;10.30;99.90;;;;;;4971069;28;20094;-68
2022/12/23 08:21:29;;;;;;;8.30;1.98;;;10.30;99.90;;;;;;4956233;28;20482;-68
2022/12/23 08:23:54;;;;;;;3.60;1.40;;;10.20;99.90;;;;;;4956573;28;20475;-68
2022/12/23 08:29:42;;;;;;;4.57;2.25;;;10.00;99.90;;;;;;4956684;29;20030;-68
2022/12/23 08:32:08;;;;;;;6.32;3.13;;;10.00;99.90;;;;;;4970919;28;20031;-68
2022/12/23 08:34:35;;;;;;;4.82;2.45;;;10.00;99.90;;;;;;4959223;28;20023;-68
2022/12/23 08:37:01;;;;;;;9.15;2.40;;;9.90;99.90;;;;;;4954743;28;20025;-68
2022/12/23 08:39:27;;;;;;;6.78;2.95;;;9.80;99.90;;;;;;4954582;28;20110;-68
2022/12/23 08:41:53;;;;;;;5.82;2.67;;;9.80;99.90;;;;;;4955848;28;20030;-68
2022/12/23 08:44:21;;;;;;;5.78;2.08;;;9.70;99.90;;;;;;4939453;28;20035;-68
2022/12/23 08:46:46;;;;;;;2.55;1.52;;;9.60;99.90;;;;;;4954615;28;20443;-68
2022/12/23 08:49:12;;;;;;;3.83;1.48;;;9.60;99.90;;;;;;4954450;28;20027;-68
2022/12/23 08:51:37;;;;;;;5.80;1.58;;;9.60;99.90;;;;;;4954266;28;20038;-68
2022/12/23 08:54:04;;;;;;;3.40;1.75;;;9.60;99.90;;;;;;4955602;28;20027;-68
2022/12/23 08:56:35;;;;;;;5.68;1.67;;;9.60;99.90;;;;;;4960104;28;20035;-68
2022/12/23 08:59:13;;;;;;;3.83;1.70;;;9.60;99.90;;;;;;4958730;28;20117;-68
2022/12/23 09:01:39;;;;;;;4.72;1.80;;;9.70;99.90;;;;;;4990083;28;20046;-68
2022/12/23 09:04:06;;;;;;;7.20;2.67;;;9.70;99.90;;;;;;4990017;28;20027;-68
2022/12/23 09:06:35;;;;;;;5.18;2.38;;;9.70;99.90;;;;;;4974693;28;20034;-68
2022/12/23 09:09:01;;;;;;;7.30;3.28;;;9.80;99.90;;;;;;4973757;28;20030;-68
2022/12/23 09:11:28;;;;;;;6.43;2.75;;;9.80;99.90;;;;;;4943124;28;20103;-68
2022/12/23 09:13:55;;;;;;;6.15;2.55;;;9.80;99.90;;;;;;4950964;28;20550;-68
2022/12/23 09:16:21;;;;;;;6.43;2.72;;;9.90;99.90;;;;;;4950669;28;20110;-68
2022/12/23 09:18:46;;;;;;;5.60;3.28;;;9.90;99.90;;;;;;4934795;28;20055;-69
2022/12/23 09:21:14;;;;;;;5.80;2.38;;;9.90;99.90;;;;;;4934820;28;20064;-69
2022/12/23 09:23:40;;;;;;;3.80;1.90;;;9.90;99.90;;;;;;4934697;28;20028;-68
2022/12/23 09:26:07;;;;;;;4.25;2.20;;;9.90;99.90;;;;;;4934882;29;20119;-68
2022/12/23 09:28:33;;;;;;;3.70;2.15;;;10.00;99.90;;;;;;4936005;29;20055;-68
2022/12/23 09:31:06;;;;;;;5.63;2.20;;;10.00;99.90;;;;;;4934519;28;20078;-68
2022/12/23 09:33:32;;;;;;;5.85;2.30;;;10.10;99.90;;;;;;4934750;28;20033;-68
2022/12/23 09:36:01;;;;;;;6.40;2.30;;;10.10;99.90;;;;;;4942656;29;20039;-68
2022/12/23 09:38:26;;;;;;;8.30;2.10;;;10.00;99.90;;;;;;4949701;28;20023;-68
2022/12/23 09:40:52;;;;;;;3.03;1.98;;;10.00;99.90;;;;;;4936085;29;20046;-68
2022/12/23 09:43:34;;;;;;;3.88;2.22;;;9.90;99.90;;;;;;4934653;28;20027;-68
2022/12/23 09:46:25;;;;;;;11.30;1.88;;;9.80;99.90;;;;;;4935473;28;20031;-68
2022/12/23 09:48:58;;;;;;;5.10;2.47;;;9.90;99.90;;;;;;4935376;28;20087;-68
2022/12/23 09:51:24;;;;;;;3.58;2.15;;;10.00;99.90;;;;;;4950586;28;20095;-68
2022/12/23 09:53:58;;;;;;;3.58;2.03;;;10.00;99.90;;;;;;4934677;29;20062;-68
2022/12/23 09:56:41;;;;;;;5.53;2.08;;;10.10;99.90;;;;;;4942714;29;20030;-68
2022/12/23 09:59:35;;;;;;;5.18;2.05;;;10.10;99.90;;;;;;4953822;28;20032;-68
2022/12/23 10:02:22;;;;;;;6.35;2.00;;;10.10;99.90;;;;;;4938588;29;20027;-68
2022/12/23 10:05:19;;;;;;;3.58;1.80;;;10.10;99.90;;;;;;4945695;29;20110;-68
2022/12/23 10:08:15;;;;;;;2.63;1.50;;;10.20;99.90;;;;;;4972080;28;20024;-69
2022/12/23 10:10:57;;;;;;;6.32;3.08;;;10.30;99.90;;;;;;4948847;28;20028;-68
2022/12/23 10:13:38;;;;;;;5.10;1.80;;;10.50;99.90;;;;;;4934448;29;20023;-68
2022/12/23 10:16:18;;;;;;;1.58;1.00;;;10.50;99.90;;;;;;4943092;28;20055;-68
2022/12/23 10:19:05;;;;;;;2.05;0.90;;;10.60;99.90;;;;;;4953840;28;20027;-68
2022/12/23 10:21:47;;;;;;;1.00;0.60;;;10.70;99.90;;;;;;4948022;28;20034;-68
2022/12/23 10:24:19;;;;;;;1.45;1.13;;;10.80;99.90;;;;;;4937108;28;20020;-68
2022/12/23 10:26:52;;;;;;;;;;;10.90;99.90;;;;;;4950792;28;20035;-68
2022/12/23 10:29:20;;;;;;;4.95;1.00;;;11.00;99.90;;;;;;4952274;28;19906;-68
2022/12/23 10:31:49;;;;;;;2.47;0.90;;;11.10;99.90;;;;;;4953676;28;20031;-68
2022/12/23 10:34:21;;;;;;;2.15;0.43;;;11.10;99.90;;;;;;4938982;29;20428;-69
2022/12/23 10:37:17;;;;;;;2.38;0.80;;;11.00;99.90;;;;;;4956892;28;20015;-68
2022/12/23 10:40:07;;;;;;;0.95;0.60;;;10.90;99.90;;;;;;4950441;28;20075;-68
2022/12/23 10:42:42;;;;;;;1.83;0.90;;;10.80;99.90;;;;;;4938068;29;20020;-68
2022/12/23 10:45:24;;;;;;;1.17;0.82;;;10.70;99.90;;;;;;4938966;29;20420;-68
2022/12/23 10:47:53;;;;;;;;;;;10.70;99.90;;;;;;4946138;29;20034;-68
2022/12/23 10:50:45;;;;;;;1.92;0.98;;;10.70;99.90;;;;;;4941025;28;19911;-68
2022/12/23 10:53:15;;;;;;;0.88;0.70;;;10.70;99.90;;;;;;4956637;28;20098;-68
2022/12/23 10:55:41;;;;;;;2.67;0.93;;;10.80;99.90;;;;;;4957638;29;20055;-68
2022/12/23 10:58:17;;;;;;;0.77;0.55;;;10.80;99.90;;;;;;4956451;28;20111;-68
2022/12/23 11:00:47;;;;;;;1.08;0.65;;;10.90;99.90;;;;;;4957799;29;20019;-68
2022/12/23 11:03:30;;;;;;;1.88;0.70;;;10.90;99.90;;;;;;4956290;29;20031;-68
2022/12/23 11:05:57;;;;;;;1.70;0.80;;;10.90;99.90;;;;;;4956932;28;20031;-68
2022/12/23 11:08:26;;;;;;;0.85;0.70;;;10.80;99.90;;;;;;4956737;29;20055;-68
2022/12/23 11:10:53;;;;;;;1.33;0.75;;;10.90;99.90;;;;;;4957782;29;20028;-68
2022/12/23 11:13:41;;;;;;;2.20;0.88;;;10.80;99.90;;;;;;4956388;29;20034;-68
2022/12/23 11:16:18;;;;;;;1.38;0.73;;;10.80;99.90;;;;;;4956414;29;20114;-68
2022/12/23 11:19:04;;;;;;;2.05;0.50;;;10.80;99.90;;;;;;4957740;28;20075;-68
2022/12/23 11:21:32;;;;;;;1.20;0.60;;;10.70;99.90;;;;;;4956730;28;20104;-68
2022/12/23 11:24:17;;;;;;;4.00;0.68;;;10.70;99.90;;;;;;4957432;29;20023;-68
2022/12/23 11:26:46;;;;;;;1.67;0.70;;;10.60;99.90;;;;;;4956871;28;20023;-68
2022/12/23 11:29:22;;;;;;;2.80;1.52;;;10.50;99.90;;;;;;4957308;29;20395;-68
2022/12/23 11:31:48;;;;;;;9.07;1.52;;;10.40;99.90;;;;;;4955888;28;20075;-68
2022/12/23 11:34:17;;;;;;;2.53;1.10;;;10.40;99.90;;;;;;4956703;28;20027;-68
2022/12/23 11:36:43;;;;;;;1.95;1.00;;;10.40;99.90;;;;;;4955883;28;20027;-69
2022/12/23 11:39:08;;;;;;;1.67;0.90;;;10.50;99.90;;;;;;4955759;28;20122;-68
2022/12/23 11:41:48;;;;;;;4.63;1.20;;;10.60;99.90;;;;;;4955364;29;20067;-68
2022/12/23 11:44:28;;;;;;;2.88;0.95;;;10.70;99.90;;;;;;4955708;28;20146;-68
2022/12/23 11:46:54;;;;;;;1.63;1.10;;;10.70;99.90;;;;;;4955592;29;20410;-68
2022/12/23 11:49:25;;;;;;;3.10;0.80;;;10.80;99.90;;;;;;4957013;29;20031;-69
2022/12/23 11:52:10;;;;;;;3.20;1.10;;;10.90;99.90;;;;;;4956752;29;20042;-69
2022/12/23 11:54:37;;;;;;;1.73;1.27;;;10.90;99.90;;;;;;4956832;29;20031;-69
2022/12/23 11:57:07;;;;;;;3.80;1.63;;;10.80;99.90;;;;;;4955483;29;20561;-69
2022/12/23 11:59:43;;;;;;;3.25;1.13;;;10.70;99.90;;;;;;4956350;28;20035;-69
2022/12/23 12:02:25;;;;;;;1.70;1.23;;;10.80;99.90;;;;;;4956759;29;20051;-69
2022/12/23 12:05:01;;;;;;;2.90;1.67;;;10.80;99.90;;;;;;4956191;28;20086;-69
2022/12/23 12:07:29;;;;;;;2.75;1.55;;;10.70;99.90;;;;;;4955371;29;20023;-68
2022/12/23 12:09:58;;;;;;;4.30;1.70;;;10.70;99.90;;;;;;4955528;28;20030;-69
2022/12/23 12:12:23;;;;;;;2.40;1.42;;;10.70;99.90;;;;;;4955485;28;20587;-69
2022/12/23 12:14:55;;;;;;;2.47;1.33;;;10.70;99.90;;;;;;4955175;28;20028;-69
2022/12/23 12:17:26;;;;;;;;;;;10.70;99.90;;;;;;4955674;29;20051;-69
2022/12/23 12:20:10;;;;;;;1.83;1.30;;;10.70;99.90;;;;;;4955082;28;19914;-69
2022/12/23 12:22:47;;;;;;;3.80;1.40;;;10.80;99.90;;;;;;4955485;29;20023;-69
2022/12/23 12:25:19;;;;;;;1.92;1.30;;;10.90;99.90;;;;;;4954906;29;20024;-69
2022/12/23 12:27:52;;;;;;;7.97;1.90;;;10.90;99.90;;;;;;4956461;28;20039;-69
2022/12/23 12:30:20;;;;;;;4.28;1.80;;;10.90;99.90;;;;;;4956503;29;20038;-69
2022/12/23 12:33:15;;;;;;;2.80;1.65;;;10.90;99.90;;;;;;4956956;29;20043;-68
2022/12/23 12:35:48;;;;;;;6.75;2.15;;;10.70;99.90;;;;;;4955237;28;20035;-68
2022/12/23 12:38:32;;;;;;;2.67;1.60;;;10.60;99.90;;;;;;4955969;28;20034;-68
2022/12/23 12:41:07;;;;;;;4.28;1.70;;;10.80;99.90;;;;;;4954642;29;20031;-68
2022/12/23 12:43:41;;;;;;;6.75;2.10;;;10.70;99.90;;;;;;4954396;28;20020;-68
2022/12/23 12:46:32;;;;;;;4.63;2.30;;;10.70;99.90;;;;;;4954683;29;20031;-68
2022/12/23 12:49:18;;;;;;;4.03;2.53;;;10.50;99.90;;;;;;4956158;29;20105;-68
2022/12/23 12:52:15;;;;;;;4.20;2.72;;;10.40;99.90;;;;;;4954532;28;20031;-68
2022/12/23 12:55:30;;;;;;;4.97;2.78;;;10.40;99.90;;;;;;4954504;28;20020;-68
2022/12/23 12:57:56;;;;;;;7.50;2.67;;;10.50;99.90;;;;;;4954543;28;20024;-68
2022/12/23 13:00:23;;;;;;;5.65;3.15;;;10.40;99.90;;;;;;4954400;28;20023;-68
2022/12/23 13:03:14;;;;;;;8.35;3.00;;;10.40;99.90;;;;;;4954281;28;20074;-68
2022/12/23 13:05:59;;;;;;;6.73;3.23;;;10.40;99.90;;;;;;4954645;28;20019;-68
2022/12/23 13:08:52;;;;;;;5.43;2.97;;;10.40;99.90;;;;;;4954847;28;20379;-68
2022/12/23 13:11:44;;;;;;;13.57;4.05;;;10.50;99.90;;;;;;4955348;28;20030;-68
2022/12/23 13:14:32;;;;;;;9.57;4.40;;;10.50;99.90;;;;;;4954269;29;20024;-68
2022/12/23 13:17:06;;;;;;;5.88;3.50;;;10.30;99.90;;;;;;4954179;28;20110;-68
2022/12/23 13:19:46;;;;;;;7.13;4.03;;;10.30;99.90;;;;;;4954084;28;20028;-68
2022/12/23 13:22:16;;;;;;;13.43;5.63;;;10.30;99.90;;;;;;4954051;29;20479;-68
2022/12/23 13:25:01;;;;;;;6.10;3.85;;;10.30;99.90;;;;;;4955555;29;20109;-68
2022/12/23 13:27:55;;;;;;;6.90;3.65;;;10.20;99.90;;;;;;4955242;29;20510;-68
2022/12/23 13:30:23;;;;;;;13.60;5.53;;;10.30;99.90;;;;;;4953926;28;20039;-68
2022/12/23 13:33:06;;;;;;;10.43;4.65;;;10.20;99.90;;;;;;4953812;28;20031;-68
2022/12/23 13:35:41;;;;;;;12.82;5.78;;;10.10;99.90;;;;;;4954010;28;20101;-72
2022/12/23 13:38:33;;;;;;;17.98;6.65;;;10.00;99.90;;;;;;4955412;29;20030;-67
2022/12/23 13:41:12;;;;;;;;;;;9.80;99.90;;;;;;4954059;28;20038;-67
2022/12/23 13:43:44;;;;;;;13.65;5.15;;;9.80;99.90;;;;;;4935514;28;20005;-67
2022/12/23 13:46:29;;;;;;;5.28;3.42;;;9.80;99.90;;;;;;4951231;28;20027;-67
2022/12/23 13:49:11;;;;;;;11.38;4.45;;;9.80;99.90;;;;;;4951404;28;20067;-67
2022/12/23 13:51:56;;;;;;;14.30;4.82;;;9.90;99.90;;;;;;4935795;29;20103;-68